createdAt,value
2019-02-20T00:00:55.242Z,16.43
2019-02-20T00:04:17.884Z,16.77
2019-02-20T00:07:40.041Z,17.43
2019-02-20T00:11:02.589Z,21.13
2019-02-20T00:14:25.242Z,18.23
2019-02-20T00:17:47.931Z,16.00
2019-02-20T00:21:10.541Z,15.73
2019-02-20T00:24:33.106Z,16.43
2019-02-20T00:27:55.565Z,15.17
2019-02-20T00:31:18.074Z,23.90
2019-02-20T00:34:40.138Z,17.73
2019-02-20T00:38:02.229Z,17.03
2019-02-20T00:41:24.747Z,14.07
2019-02-20T00:45:06.432Z,17.47
2019-02-20T00:48:38.146Z,13.30
2019-02-20T00:52:17.704Z,15.60
2019-02-20T00:55:40.057Z,14.73
2019-02-20T00:59:02.581Z,19.60
2019-02-20T01:02:25.020Z,13.17
2019-02-20T01:05:47.520Z,14.87
2019-02-20T01:09:10.268Z,15.20
2019-02-20T01:12:33.066Z,16.73
2019-02-20T01:15:55.518Z,17.60
2019-02-20T01:19:18.021Z,19.20
2019-02-20T01:22:40.422Z,19.40
2019-02-20T01:26:03.077Z,19.63
2019-02-20T01:29:25.750Z,19.67
2019-02-20T01:32:48.332Z,18.13
2019-02-20T01:36:11.084Z,22.53
2019-02-20T01:39:34.000Z,17.60
2019-02-20T01:42:56.823Z,16.73
2019-02-20T01:46:19.062Z,16.30
2019-02-20T01:49:41.852Z,14.10
2019-02-20T01:53:10.260Z,12.67
2019-02-20T01:56:28.764Z,15.43
2019-02-20T01:59:51.298Z,13.40
2019-02-20T02:03:14.073Z,13.13
2019-02-20T02:06:36.211Z,13.57
2019-02-20T02:09:58.558Z,11.20
2019-02-20T02:13:20.920Z,15.40
2019-02-20T02:16:43.608Z,12.30
2019-02-20T02:20:06.816Z,13.23
2019-02-20T02:23:29.043Z,13.13
2019-02-20T02:26:51.489Z,9.40
2019-02-20T02:30:14.280Z,9.97
2019-02-20T02:33:36.908Z,12.47
2019-02-20T02:36:59.019Z,10.97
2019-02-20T02:40:21.482Z,13.73
2019-02-20T02:43:43.730Z,12.97
2019-02-20T02:47:06.113Z,10.57
2019-02-20T02:50:28.681Z,9.07
2019-02-20T02:53:51.348Z,8.87
2019-02-20T02:57:13.904Z,10.93
2019-02-20T03:00:36.302Z,9.93
2019-02-20T03:03:58.919Z,12.50
2019-02-20T03:07:21.629Z,10.10
2019-02-20T03:10:44.206Z,12.40
2019-02-20T03:14:06.745Z,11.77
2019-02-20T03:17:29.462Z,10.27
2019-02-20T03:20:52.138Z,12.07
2019-02-20T03:24:15.019Z,11.13
2019-02-20T03:27:37.507Z,12.37
2019-02-20T03:30:59.968Z,14.43
2019-02-20T03:34:22.530Z,11.27
2019-02-20T03:37:45.145Z,11.70
2019-02-20T03:41:07.947Z,12.03
2019-02-20T03:44:30.267Z,13.10
2019-02-20T03:47:52.768Z,11.83
2019-02-20T03:51:15.416Z,9.73
2019-02-20T03:54:37.925Z,13.73
2019-02-20T03:58:00.873Z,13.93
2019-02-20T04:01:23.352Z,12.87
2019-02-20T04:04:45.789Z,17.60
2019-02-20T04:08:08.267Z,14.50
2019-02-20T04:11:30.908Z,13.40
2019-02-20T04:14:53.670Z,11.63
2019-02-20T04:18:16.101Z,14.93
2019-02-20T04:21:38.616Z,15.93
2019-02-20T04:25:01.018Z,15.10
2019-02-20T04:28:23.767Z,13.27
2019-02-20T04:31:46.241Z,20.17
2019-02-20T04:35:08.698Z,16.60
2019-02-20T04:38:31.647Z,16.27
2019-02-20T04:41:54.080Z,19.93
2019-02-20T04:45:16.527Z,18.33
2019-02-20T04:48:39.063Z,16.17
2019-02-20T04:52:01.791Z,18.77
2019-02-20T04:55:24.099Z,19.90
2019-02-20T04:58:48.719Z,23.50
2019-02-20T05:02:11.419Z,18.77
2019-02-20T05:05:33.923Z,17.80
2019-02-20T05:08:56.645Z,16.90
2019-02-20T05:12:19.190Z,18.63
2019-02-20T05:15:41.742Z,19.13
2019-02-20T05:19:04.370Z,18.57
2019-02-20T05:22:27.583Z,20.70
2019-02-20T05:25:50.001Z,19.13
2019-02-20T05:29:12.165Z,18.83
2019-02-20T05:32:34.212Z,24.07
2019-02-20T05:35:56.842Z,20.97
2019-02-20T05:39:19.230Z,18.80
2019-02-20T05:42:41.715Z,18.50
2019-02-20T05:46:04.274Z,17.80
2019-02-20T05:49:26.419Z,20.37
2019-02-20T05:52:48.878Z,21.23
2019-02-20T05:56:11.375Z,18.43
2019-02-20T05:59:34.071Z,26.67
2019-02-20T06:02:56.468Z,17.53
2019-02-20T06:06:19.191Z,16.33
2019-02-20T06:09:41.367Z,15.23
2019-02-20T06:13:03.765Z,23.20
2019-02-20T06:16:26.448Z,21.17
2019-02-20T06:19:48.492Z,21.27
2019-02-20T06:23:10.881Z,17.37
2019-02-20T06:26:38.970Z,18.03
2019-02-20T06:30:01.558Z,26.43
2019-02-20T06:33:24.108Z,17.60
2019-02-20T06:36:46.273Z,20.20
2019-02-20T06:40:08.766Z,24.70
2019-02-20T06:43:31.405Z,19.13
2019-02-20T06:46:53.803Z,17.03
2019-02-20T06:50:16.255Z,22.50
2019-02-20T06:53:39.012Z,17.47
2019-02-20T06:57:01.195Z,22.87
2019-02-20T07:00:24.202Z,22.73
2019-02-20T07:03:46.723Z,18.60
2019-02-20T07:07:27.389Z,20.77
2019-02-20T07:11:07.200Z,15.60
2019-02-20T07:15:05.496Z,21.03
2019-02-20T07:18:53.230Z,18.30
2019-02-20T07:22:51.315Z,17.47
2019-02-20T07:26:46.394Z,24.27
2019-02-20T07:30:10.349Z,22.47
2019-02-20T07:33:34.960Z,17.30
2019-02-20T07:36:57.380Z,23.77
2019-02-20T07:40:19.823Z,22.03
2019-02-20T07:43:42.339Z,19.23
2019-02-20T07:47:04.790Z,23.00
2019-02-20T07:50:27.491Z,16.40
2019-02-20T07:53:49.906Z,20.47
2019-02-20T07:57:12.428Z,20.90
2019-02-20T08:00:35.167Z,22.43
2019-02-20T08:03:57.580Z,20.53
2019-02-20T08:07:20.038Z,19.43
2019-02-20T08:10:42.802Z,17.20
2019-02-20T08:14:06.123Z,19.40
2019-02-20T08:17:28.971Z,15.30
2019-02-20T08:20:51.303Z,20.10
2019-02-20T08:24:14.067Z,20.27
2019-02-20T08:27:37.042Z,24.23
2019-02-20T08:30:59.649Z,19.57
2019-02-20T08:34:22.258Z,16.67
2019-02-20T08:37:44.697Z,19.07
2019-02-20T08:41:07.114Z,22.27
2019-02-20T08:44:29.925Z,23.37
2019-02-20T08:47:52.389Z,18.23
2019-02-20T08:51:14.813Z,21.27
2019-02-20T08:54:37.379Z,17.27
2019-02-20T08:58:00.263Z,18.73
2019-02-20T09:01:22.697Z,17.43
2019-02-20T09:04:45.433Z,20.27
2019-02-20T09:08:08.114Z,20.93
2019-02-20T09:11:30.514Z,20.80
2019-02-20T09:14:53.281Z,21.97
2019-02-20T09:18:15.857Z,17.70
2019-02-20T09:21:38.006Z,22.20
2019-02-20T09:25:00.370Z,19.23
2019-02-20T09:28:23.073Z,21.77
2019-02-20T09:31:45.855Z,25.17
2019-02-20T09:35:08.430Z,25.20
2019-02-20T09:38:31.112Z,19.10
2019-02-20T09:41:53.883Z,18.60
2019-02-20T09:45:16.323Z,23.20
2019-02-20T09:48:40.223Z,20.43
2019-02-20T09:52:02.737Z,20.17
2019-02-20T09:55:25.468Z,21.97
2019-02-20T09:58:47.959Z,22.17
2019-02-20T10:02:10.653Z,23.13
2019-02-20T10:05:33.274Z,21.87
2019-02-20T10:08:56.179Z,20.50
2019-02-20T10:12:18.880Z,19.07
2019-02-20T10:15:41.577Z,27.53
2019-02-20T10:19:04.000Z,18.67
2019-02-20T10:22:26.576Z,20.67
2019-02-20T10:25:48.831Z,22.97
2019-02-20T10:29:11.013Z,25.97
2019-02-20T10:32:33.555Z,21.10
2019-02-20T10:35:56.187Z,24.20
2019-02-20T10:39:18.303Z,21.90
2019-02-20T10:42:41.138Z,18.97
2019-02-20T10:46:03.465Z,25.73
2019-02-20T10:49:25.931Z,23.20
2019-02-20T10:52:48.301Z,26.60
2019-02-20T10:56:11.130Z,20.17
2019-02-20T10:59:33.272Z,19.83
2019-02-20T11:02:55.776Z,26.93
2019-02-20T11:06:18.004Z,17.37
2019-02-20T11:09:40.680Z,17.33
2019-02-20T11:13:03.167Z,21.47
2019-02-20T11:16:25.775Z,17.30
2019-02-20T11:19:48.204Z,25.83
2019-02-20T11:23:10.626Z,22.63
2019-02-20T11:26:33.117Z,18.30
2019-02-20T11:29:55.746Z,25.83
2019-02-20T11:33:18.510Z,20.70
2019-02-20T11:36:41.225Z,26.53
2019-02-20T11:40:03.834Z,25.93
2019-02-20T11:43:25.886Z,22.37
2019-02-20T11:46:48.105Z,23.10
2019-02-20T11:50:10.331Z,24.30
2019-02-20T11:53:37.211Z,23.40
2019-02-20T11:56:57.063Z,21.37
2019-02-20T12:00:20.771Z,22.57
2019-02-20T12:03:42.941Z,27.37
2019-02-20T12:07:05.434Z,24.40
2019-02-20T12:10:28.077Z,22.40
2019-02-20T12:13:50.327Z,23.27
2019-02-20T12:17:12.741Z,22.13
2019-02-20T12:20:35.556Z,27.13
2019-02-20T12:23:58.182Z,22.90
2019-02-20T12:27:20.559Z,21.33
2019-02-20T12:30:43.204Z,28.27
2019-02-20T12:34:05.707Z,20.77
2019-02-20T12:37:28.361Z,23.30
2019-02-20T12:40:50.959Z,18.83
2019-02-20T12:44:13.310Z,20.13
2019-02-20T12:47:35.762Z,20.23
2019-02-20T12:50:58.574Z,19.80
2019-02-20T12:54:21.213Z,20.33
2019-02-20T12:57:43.711Z,21.50
2019-02-20T13:01:06.975Z,22.60
2019-02-20T13:04:29.335Z,20.10
2019-02-20T13:07:51.768Z,24.13
2019-02-20T13:11:14.616Z,22.47
2019-02-20T13:14:36.913Z,21.37
2019-02-20T13:17:59.792Z,21.97
2019-02-20T13:21:22.385Z,17.07
2019-02-20T13:24:45.494Z,19.63
2019-02-20T13:28:08.271Z,21.03
2019-02-20T13:31:31.283Z,22.53
2019-02-20T13:34:53.808Z,21.47
2019-02-20T13:38:16.761Z,24.87
2019-02-20T13:41:39.110Z,18.67
2019-02-20T13:45:01.644Z,18.03
2019-02-20T13:48:24.424Z,19.73
2019-02-20T13:51:46.813Z,18.93
2019-02-20T13:55:09.661Z,24.47
2019-02-20T13:58:32.150Z,23.03
2019-02-20T14:01:54.632Z,22.93
2019-02-20T14:05:17.078Z,26.33
2019-02-20T14:08:39.937Z,21.43
2019-02-20T14:12:02.545Z,21.97
2019-02-20T14:15:25.063Z,24.70
2019-02-20T14:18:47.777Z,26.40
2019-02-20T14:22:10.273Z,22.90
2019-02-20T14:25:32.822Z,24.97
2019-02-20T14:28:55.562Z,18.37
2019-02-20T14:32:18.045Z,21.73
2019-02-20T14:35:40.782Z,18.50
2019-02-20T14:39:04.545Z,23.43
2019-02-20T14:42:26.982Z,20.63
2019-02-20T14:45:49.729Z,17.00
2019-02-20T14:49:12.422Z,25.20
2019-02-20T14:52:34.927Z,17.53
2019-02-20T14:55:57.426Z,23.27
2019-02-20T14:59:20.437Z,21.37
2019-02-20T15:02:43.818Z,19.83
2019-02-20T15:06:08.077Z,18.63
2019-02-20T15:09:30.532Z,22.87
2019-02-20T15:12:53.301Z,20.27
2019-02-20T15:16:15.864Z,24.27
2019-02-20T15:19:38.070Z,22.27
2019-02-20T15:23:00.942Z,24.07
2019-02-20T15:26:23.702Z,21.23
2019-02-20T15:29:46.323Z,22.87
2019-02-20T15:33:09.257Z,31.40
2019-02-20T15:36:32.222Z,16.50
2019-02-20T15:39:55.003Z,21.67
2019-02-20T15:43:17.753Z,17.97
2019-02-20T15:46:41.076Z,21.70
2019-02-20T15:50:04.318Z,24.40
2019-02-20T15:53:27.234Z,20.73
2019-02-20T15:56:49.877Z,20.83
2019-02-20T16:00:16.241Z,20.20
2019-02-20T16:03:38.333Z,18.70
2019-02-20T16:07:01.095Z,18.93
2019-02-20T16:10:23.895Z,24.90
2019-02-20T16:13:46.444Z,23.13
2019-02-20T16:17:09.057Z,21.20
2019-02-20T16:20:33.567Z,20.90
2019-02-20T16:23:55.955Z,19.00
2019-02-20T16:27:19.201Z,21.93
2019-02-20T16:30:42.084Z,26.57
2019-02-20T16:34:04.941Z,25.93
2019-02-20T16:37:27.850Z,22.60
2019-02-20T16:40:50.622Z,24.20
2019-02-20T16:44:13.513Z,25.30
2019-02-20T16:47:36.477Z,29.90
2019-02-20T16:50:59.389Z,22.27
2019-02-20T16:54:21.956Z,17.33
2019-02-20T16:57:44.724Z,27.77
2019-02-20T17:01:08.306Z,29.83
2019-02-20T17:04:31.149Z,24.47
2019-02-20T17:07:54.092Z,24.83
2019-02-20T17:11:16.919Z,25.20
2019-02-20T17:14:39.515Z,22.40
2019-02-20T17:18:02.438Z,24.33
2019-02-20T17:21:24.825Z,19.87
2019-02-20T17:24:48.346Z,24.83
2019-02-20T17:28:10.886Z,20.57
2019-02-20T17:31:33.622Z,23.47
2019-02-20T17:34:56.334Z,27.47
2019-02-20T17:38:18.818Z,17.67
2019-02-20T17:41:41.223Z,23.17
2019-02-20T17:45:04.154Z,26.97
2019-02-20T17:48:26.801Z,24.37
2019-02-20T17:51:49.209Z,22.87
2019-02-20T17:55:12.073Z,23.30
2019-02-20T17:58:34.185Z,19.80
2019-02-20T18:01:58.408Z,20.90
2019-02-20T18:05:20.214Z,25.10
2019-02-20T18:08:42.526Z,20.57
2019-02-20T18:12:04.658Z,24.43
2019-02-20T18:15:27.382Z,19.83
2019-02-20T18:18:50.194Z,21.37
2019-02-20T18:22:12.617Z,22.77
2019-02-20T18:25:54.258Z,20.00
2019-02-20T18:29:16.714Z,20.00
2019-02-20T18:32:39.496Z,26.07
2019-02-20T18:36:02.097Z,19.70
2019-02-20T18:39:24.619Z,18.90
2019-02-20T18:42:47.273Z,23.47
2019-02-20T18:46:10.346Z,23.90
2019-02-20T18:49:33.123Z,22.17
2019-02-20T18:52:55.304Z,23.20
2019-02-20T18:56:17.709Z,21.97
2019-02-20T18:59:40.362Z,18.50
2019-02-20T19:03:02.978Z,18.50
2019-02-20T19:06:25.668Z,19.43
2019-02-20T19:09:49.669Z,21.80
2019-02-20T19:13:39.771Z,20.63
2019-02-20T19:17:33.289Z,22.67
2019-02-20T19:21:10.824Z,22.10
2019-02-20T19:25:20.893Z,23.47
2019-02-20T19:28:51.936Z,21.63
2019-02-20T19:32:44.820Z,23.63
2019-02-20T19:36:46.949Z,17.33
2019-02-20T19:40:52.783Z,22.70
2019-02-20T19:44:31.570Z,22.67
2019-02-20T19:48:28.784Z,20.67
2019-02-20T19:52:20.583Z,25.40
2019-02-20T19:56:29.993Z,18.63
2019-02-20T20:00:34.221Z,25.47
2019-02-20T20:04:06.777Z,18.23
2019-02-20T20:08:13.375Z,20.33
2019-02-20T20:12:22.298Z,20.70
2019-02-20T20:16:27.658Z,21.50
2019-02-20T20:20:12.713Z,16.57
2019-02-20T20:24:23.063Z,20.07
2019-02-20T20:28:07.007Z,15.53
2019-02-20T20:31:48.371Z,17.37
2019-02-20T20:35:23.346Z,20.73
2019-02-20T20:39:17.820Z,26.33
2019-02-20T20:43:20.346Z,20.30
2019-02-20T20:47:17.112Z,17.87
2019-02-20T20:51:22.424Z,13.57
2019-02-20T20:55:31.595Z,14.90
2019-02-20T20:59:19.619Z,20.90
2019-02-20T21:02:56.358Z,20.97
2019-02-20T21:06:51.512Z,19.00
2019-02-20T21:10:39.330Z,22.70
2019-02-20T21:14:46.045Z,18.90
2019-02-20T21:18:49.057Z,15.13
2019-02-20T21:22:45.898Z,19.30
2019-02-20T21:26:52.414Z,22.57
2019-02-20T21:31:00.661Z,18.23
2019-02-20T21:35:00.294Z,19.20
2019-02-20T21:39:06.932Z,16.60
2019-02-20T21:42:58.016Z,16.00
2019-02-20T21:46:31.842Z,15.97
2019-02-20T21:50:26.739Z,14.47
2019-02-20T21:54:42.641Z,15.73
2019-02-20T21:58:57.546Z,13.13
2019-02-20T22:02:42.490Z,18.83
2019-02-20T22:06:32.351Z,16.03
2019-02-20T22:10:21.937Z,17.77
2019-02-20T22:14:50.453Z,16.27
2019-02-20T22:18:24.576Z,19.03
2019-02-20T22:22:22.147Z,14.37
2019-02-20T22:26:04.454Z,15.03
2019-02-20T22:30:18.920Z,15.37
2019-02-20T22:34:03.215Z,13.43
2019-02-20T22:38:04.713Z,15.97
2019-02-20T22:41:41.368Z,17.67
2019-02-20T22:45:33.595Z,19.67
2019-02-20T22:49:53.058Z,13.27
2019-02-20T22:53:35.720Z,14.27
2019-02-20T22:57:52.240Z,12.77
2019-02-20T23:01:21.286Z,10.63
2019-02-20T23:05:36.921Z,15.40
2019-02-20T23:09:14.654Z,18.03
2019-02-20T23:12:54.168Z,18.47
2019-02-20T23:16:16.569Z,26.33
2019-02-20T23:19:39.187Z,16.00
2019-02-20T23:23:01.663Z,19.23
2019-02-20T23:26:24.117Z,18.33
2019-02-20T23:29:46.519Z,21.53
2019-02-20T23:33:09.149Z,18.03
2019-02-20T23:36:31.969Z,12.97
2019-02-20T23:39:54.171Z,16.30
2019-02-20T23:43:16.886Z,15.10
2019-02-20T23:46:39.433Z,14.63
2019-02-20T23:50:01.891Z,17.57
2019-02-20T23:53:24.080Z,13.83
2019-02-20T23:56:46.314Z,15.00
